TimeCST,TemperatureF,Dew PointF,Humidity,Sea Level PressureIn,VisibilityMPH,Wind Direction,Wind SpeedMPH,Gust SpeedMPH,PrecipitationIn,Events,Conditions,WindDirDegrees,DateUTC
6:00 AM,74,73,94,29.85,9,WSW,3.5,,,,Overcast,250,2013-11-08 12:00:00
6:00 AM,75.2,73.4,94,29.84,-9999.0,WSW,3.5,-,N/A,,Clear,250,2013-11-08 12:00:00
7:00 AM,78.8,73.4,83,29.85,-9999.0,WSW,3.5,-,N/A,,Clear,250,2013-11-08 13:00:00
8:00 AM,84.2,73.4,70,29.87,-9999.0,West,2.3,-,N/A,,Clear,280,2013-11-08 14:00:00
9:00 AM,85,73,61,29.89,9,NNW,8.1,,,,Haze,330,2013-11-08 15:00:00
9:00 AM,86.0,73.4,66,29.88,-9999.0,NNW,8.1,-,N/A,,Scattered Clouds,330,2013-11-08 15:00:00
9:01 AM,86.0,73.4,66,29.88,-9999.0,NNW,8.1,-,N/A,,Scattered Clouds,330,2013-11-08 15:01:00
10:00 AM,86.0,73.4,66,29.86,6.2,NNE,6.9,-,N/A,,Scattered Clouds,20,2013-11-08 16:00:00
11:00 AM,86.0,73.4,66,29.84,6.2,NNE,11.5,-,N/A,,Scattered Clouds,30,2013-11-08 17:00:00
12:00 PM,85,75,65,29.81,9,NE,13.8,,,,Scattered Clouds,40,2013-11-08 18:00:00
12:00 PM,86.0,75.2,70,29.80,6.2,NE,13.8,-,N/A,,Scattered Clouds,40,2013-11-08 18:00:00
1:00 PM,86.0,75.2,70,29.76,6.2,NNE,11.5,-,N/A,,Scattered Clouds,20,2013-11-08 19:00:00
2:00 PM,86.0,75.2,70,29.74,6.2,NNE,11.5,-,N/A,,Scattered Clouds,30,2013-11-08 20:00:00
3:00 PM,84,75,68,29.75,9,NNE,9.2,,,,Overcast,30,2013-11-08 21:00:00
3:00 PM,84.2,75.2,74,29.74,6.2,NNE,9.2,-,N/A,,Mostly Cloudy,30,2013-11-08 21:00:00
4:00 PM,84.2,75.2,74,29.76,6.2,NNE,9.2,-,N/A,,Overcast,20,2013-11-08 22:00:00
5:00 PM,82.4,75.2,79,29.77,6.2,NE,6.9,-,N/A,,Mostly Cloudy,40,2013-11-08 23:00:00
5:55 PM,80.6,75.2,84,29.79,6.2,North,-9999.0,-,N/A,,Overcast,0,2013-11-08 23:55:00
6:00 PM,81,75,77,29.80,9,NNE,4.6,,,,Overcast,20,2013-11-09 00:00:00
6:00 PM,80.6,75.2,84,29.79,6.2,North,-9999.0,-,N/A,,Overcast,0,2013-11-09 00:00:00